sensor_id;sensor_type;location;lat;lon;timestamp;temperature;humidity
7240;DHT22;3661;53.288;10.458;2023-07-31T00:00:48;15.00;99.90
7240;DHT22;3661;53.288;10.458;2023-07-31T00:03:23;15.00;99.90
7240;DHT22;3661;53.288;10.458;2023-07-31T00:05:59;15.00;99.90
7240;DHT22;3661;53.288;10.458;2023-07-31T00:08:43;15.00;99.90
7240;DHT22;3661;53.288;10.458;2023-07-31T00:11:17;15.00;99.90
7240;DHT22;3661;53.288;10.458;2023-07-31T00:13:49;15.00;99.90
7240;DHT22;3661;53.288;10.458;2023-07-31T00:16:23;15.00;99.90
7240;DHT22;3661;53.288;10.458;2023-07-31T00:19:03;15.00;99.90
7240;DHT22;3661;53.288;10.458;2023-07-31T00:21:38;15.00;99.90
7240;DHT22;3661;53.288;10.458;2023-07-31T00:24:11;15.00;99.90
7240;DHT22;3661;53.288;10.458;2023-07-31T00:26:46;15.00;99.90
7240;DHT22;3661;53.288;10.458;2023-07-31T00:29:23;15.00;99.90
7240;DHT22;3661;53.288;10.458;2023-07-31T00:31:58;15.00;99.90
7240;DHT22;3661;53.288;10.458;2023-07-31T00:34:39;15.00;99.90
7240;DHT22;3661;53.288;10.458;2023-07-31T00:37:12;15.00;99.90
7240;DHT22;3661;53.288;10.458;2023-07-31T00:39:47;15.00;99.90
7240;DHT22;3661;53.288;10.458;2023-07-31T00:42:19;15.00;99.90
7240;DHT22;3661;53.288;10.458;2023-07-31T00:44:52;15.00;99.90
7240;DHT22;3661;53.288;10.458;2023-07-31T00:47:24;15.00;99.90
7240;DHT22;3661;53.288;10.458;2023-07-31T00:49:59;14.90;99.90
7240;DHT22;3661;53.288;10.458;2023-07-31T00:52:31;15.00;99.90
7240;DHT22;3661;53.288;10.458;2023-07-31T00:55:04;15.00;99.90
7240;DHT22;3661;53.288;10.458;2023-07-31T00:57:37;15.00;99.90
7240;DHT22;3661;53.288;10.458;2023-07-31T01:00:11;15.00;99.90
7240;DHT22;3661;53.288;10.458;2023-07-31T01:02:44;15.00;99.90
7240;DHT22;3661;53.288;10.458;2023-07-31T01:05:23;15.00;99.90
7240;DHT22;3661;53.288;10.458;2023-07-31T01:08:05;15.00;99.90
7240;DHT22;3661;53.288;10.458;2023-07-31T01:10:45;14.90;99.90
7240;DHT22;3661;53.288;10.458;2023-07-31T01:13:18;15.00;99.90
7240;DHT22;3661;53.288;10.458;2023-07-31T01:15:51;15.00;99.90
7240;DHT22;3661;53.288;10.458;2023-07-31T01:18:23;15.00;99.90
7240;DHT22;3661;53.288;10.458;2023-07-31T01:21:07;15.00;99.90
7240;DHT22;3661;53.288;10.458;2023-07-31T01:24:08;15.00;99.90
7240;DHT22;3661;53.288;10.458;2023-07-31T01:26:48;15.00;99.90
7240;DHT22;3661;53.288;10.458;2023-07-31T01:29:26;15.00;99.90
7240;DHT22;3661;53.288;10.458;2023-07-31T01:32:02;15.00;99.90
7240;DHT22;3661;53.288;10.458;2023-07-31T01:34:35;15.00;99.90
7240;DHT22;3661;53.288;10.458;2023-07-31T01:37:08;15.00;99.90
7240;DHT22;3661;53.288;10.458;2023-07-31T01:39:41;15.00;99.90
7240;DHT22;3661;53.288;10.458;2023-07-31T01:42:15;15.00;99.90
7240;DHT22;3661;53.288;10.458;2023-07-31T01:44:47;15.00;99.90
7240;DHT22;3661;53.288;10.458;2023-07-31T01:47:19;15.00;99.90
7240;DHT22;3661;53.288;10.458;2023-07-31T01:49:51;15.00;99.90
7240;DHT22;3661;53.288;10.458;2023-07-31T01:52:23;15.00;99.90
7240;DHT22;3661;53.288;10.458;2023-07-31T01:54:56;15.10;99.90
7240;DHT22;3661;53.288;10.458;2023-07-31T01:57:30;15.10;99.90
7240;DHT22;3661;53.288;10.458;2023-07-31T02:00:07;15.10;99.90
7240;DHT22;3661;53.288;10.458;2023-07-31T02:02:39;15.10;99.90
7240;DHT22;3661;53.288;10.458;2023-07-31T02:05:11;15.10;99.90
7240;DHT22;3661;53.288;10.458;2023-07-31T02:07:46;15.10;99.90
7240;DHT22;3661;53.288;10.458;2023-07-31T02:10:18;15.10;99.90
7240;DHT22;3661;53.288;10.458;2023-07-31T02:12:52;15.10;99.90
7240;DHT22;3661;53.288;10.458;2023-07-31T02:15:25;15.10;99.90
7240;DHT22;3661;53.288;10.458;2023-07-31T02:17:57;15.00;99.90
7240;DHT22;3661;53.288;10.458;2023-07-31T02:20:29;15.00;99.90
7240;DHT22;3661;53.288;10.458;2023-07-31T02:23:02;15.00;99.90
7240;DHT22;3661;53.288;10.458;2023-07-31T02:25:35;15.00;99.90
7240;DHT22;3661;53.288;10.458;2023-07-31T02:28:10;15.00;99.90
7240;DHT22;3661;53.288;10.458;2023-07-31T02:30:45;15.00;99.90
7240;DHT22;3661;53.288;10.458;2023-07-31T02:33:17;15.00;99.90
7240;DHT22;3661;53.288;10.458;2023-07-31T02:35:49;15.00;99.90
7240;DHT22;3661;53.288;10.458;2023-07-31T02:38:23;15.10;99.90
7240;DHT22;3661;53.288;10.458;2023-07-31T02:41:00;15.00;99.90
7240;DHT22;3661;53.288;10.458;2023-07-31T02:43:35;15.00;99.90
7240;DHT22;3661;53.288;10.458;2023-07-31T02:46:08;15.00;99.90
7240;DHT22;3661;53.288;10.458;2023-07-31T02:48:42;15.00;99.90
7240;DHT22;3661;53.288;10.458;2023-07-31T02:51:14;15.00;99.90
7240;DHT22;3661;53.288;10.458;2023-07-31T02:53:47;15.00;99.90
7240;DHT22;3661;53.288;10.458;2023-07-31T02:56:20;15.10;99.90
7240;DHT22;3661;53.288;10.458;2023-07-31T02:58:56;15.10;99.90
7240;DHT22;3661;53.288;10.458;2023-07-31T03:01:31;15.10;99.90
7240;DHT22;3661;53.288;10.458;2023-07-31T03:04:03;15.10;99.90
7240;DHT22;3661;53.288;10.458;2023-07-31T03:06:36;15.10;99.90
7240;DHT22;3661;53.288;10.458;2023-07-31T03:09:09;15.10;99.90
7240;DHT22;3661;53.288;10.458;2023-07-31T03:11:42;15.10;99.90
7240;DHT22;3661;53.288;10.458;2023-07-31T03:14:16;15.10;99.90
7240;DHT22;3661;53.288;10.458;2023-07-31T03:16:48;15.10;99.90
7240;DHT22;3661;53.288;10.458;2023-07-31T03:19:20;15.10;99.90
7240;DHT22;3661;53.288;10.458;2023-07-31T03:21:53;15.10;99.90
7240;DHT22;3661;53.288;10.458;2023-07-31T03:24:26;15.20;99.90
7240;DHT22;3661;53.288;10.458;2023-07-31T03:27:06;15.20;99.90
7240;DHT22;3661;53.288;10.458;2023-07-31T03:29:39;15.20;99.90
7240;DHT22;3661;53.288;10.458;2023-07-31T03:32:12;15.20;99.90
7240;DHT22;3661;53.288;10.458;2023-07-31T03:34:47;15.20;99.90
7240;DHT22;3661;53.288;10.458;2023-07-31T03:37:19;15.20;99.90
7240;DHT22;3661;53.288;10.458;2023-07-31T03:39:51;15.20;99.90
7240;DHT22;3661;53.288;10.458;2023-07-31T03:42:24;15.20;99.90
7240;DHT22;3661;53.288;10.458;2023-07-31T03:44:59;15.20;99.90
7240;DHT22;3661;53.288;10.458;2023-07-31T03:47:32;15.20;99.90
7240;DHT22;3661;53.288;10.458;2023-07-31T03:50:04;15.30;99.90
7240;DHT22;3661;53.288;10.458;2023-07-31T03:52:37;15.30;99.90
7240;DHT22;3661;53.288;10.458;2023-07-31T03:55:09;15.30;99.90
7240;DHT22;3661;53.288;10.458;2023-07-31T03:57:41;15.30;99.90
7240;DHT22;3661;53.288;10.458;2023-07-31T04:00:15;15.30;99.90
7240;DHT22;3661;53.288;10.458;2023-07-31T04:02:49;15.30;99.90
7240;DHT22;3661;53.288;10.458;2023-07-31T04:05:23;15.30;99.90
7240;DHT22;3661;53.288;10.458;2023-07-31T04:07:56;15.30;99.90
7240;DHT22;3661;53.288;10.458;2023-07-31T04:10:29;15.30;99.90
7240;DHT22;3661;53.288;10.458;2023-07-31T04:13:04;15.40;99.90
7240;DHT22;3661;53.288;10.458;2023-07-31T04:15:38;15.40;99.90
7240;DHT22;3661;53.288;10.458;2023-07-31T04:18:10;15.40;99.90
7240;DHT22;3661;53.288;10.458;2023-07-31T04:20:42;15.40;99.90
7240;DHT22;3661;53.288;10.458;2023-07-31T04:23:14;15.40;99.90
7240;DHT22;3661;53.288;10.458;2023-07-31T04:25:47;15.40;99.90
7240;DHT22;3661;53.288;10.458;2023-07-31T04:28:19;15.40;99.90
7240;DHT22;3661;53.288;10.458;2023-07-31T04:30:52;15.40;99.90
7240;DHT22;3661;53.288;10.458;2023-07-31T04:33:27;15.40;99.90
7240;DHT22;3661;53.288;10.458;2023-07-31T04:35:59;15.40;99.90
7240;DHT22;3661;53.288;10.458;2023-07-31T04:38:32;15.40;99.90
7240;DHT22;3661;53.288;10.458;2023-07-31T04:41:04;15.50;99.90
7240;DHT22;3661;53.288;10.458;2023-07-31T04:43:37;15.50;99.90
7240;DHT22;3661;53.288;10.458;2023-07-31T04:46:13;15.50;99.90
7240;DHT22;3661;53.288;10.458;2023-07-31T04:48:47;15.50;99.90
7240;DHT22;3661;53.288;10.458;2023-07-31T04:51:19;15.50;99.90
7240;DHT22;3661;53.288;10.458;2023-07-31T04:53:51;15.50;99.90
7240;DHT22;3661;53.288;10.458;2023-07-31T04:56:24;15.50;99.90
7240;DHT22;3661;53.288;10.458;2023-07-31T04:58:56;15.50;99.90
7240;DHT22;3661;53.288;10.458;2023-07-31T05:01:32;15.60;99.90
7240;DHT22;3661;53.288;10.458;2023-07-31T05:04:05;15.50;99.90
7240;DHT22;3661;53.288;10.458;2023-07-31T05:06:37;15.50;99.90
7240;DHT22;3661;53.288;10.458;2023-07-31T05:09:10;15.60;99.90
7240;DHT22;3661;53.288;10.458;2023-07-31T05:11:43;15.60;99.90
7240;DHT22;3661;53.288;10.458;2023-07-31T05:14:17;15.60;99.90
7240;DHT22;3661;53.288;10.458;2023-07-31T05:16:50;15.60;99.90
7240;DHT22;3661;53.288;10.458;2023-07-31T05:19:23;15.60;99.90
7240;DHT22;3661;53.288;10.458;2023-07-31T05:21:55;15.70;99.90
7240;DHT22;3661;53.288;10.458;2023-07-31T05:24:27;15.60;99.90
7240;DHT22;3661;53.288;10.458;2023-07-31T05:26:59;15.70;99.90
7240;DHT22;3661;53.288;10.458;2023-07-31T05:29:31;15.70;99.90
7240;DHT22;3661;53.288;10.458;2023-07-31T05:32:06;15.70;99.90
7240;DHT22;3661;53.288;10.458;2023-07-31T05:34:40;15.70;99.90
7240;DHT22;3661;53.288;10.458;2023-07-31T05:37:12;15.70;99.90
7240;DHT22;3661;53.288;10.458;2023-07-31T05:39:45;15.70;99.90
7240;DHT22;3661;53.288;10.458;2023-07-31T05:42:17;15.70;99.90
7240;DHT22;3661;53.288;10.458;2023-07-31T05:44:49;15.80;99.90
7240;DHT22;3661;53.288;10.458;2023-07-31T05:47:23;15.80;99.90
7240;DHT22;3661;53.288;10.458;2023-07-31T05:49:55;15.80;99.90
7240;DHT22;3661;53.288;10.458;2023-07-31T05:52:27;15.80;99.90
7240;DHT22;3661;53.288;10.458;2023-07-31T05:55:00;15.80;99.90
7240;DHT22;3661;53.288;10.458;2023-07-31T05:57:33;15.90;99.90
7240;DHT22;3661;53.288;10.458;2023-07-31T06:00:08;15.90;99.90
7240;DHT22;3661;53.288;10.458;2023-07-31T06:02:43;15.90;99.90
7240;DHT22;3661;53.288;10.458;2023-07-31T06:05:15;16.00;99.90
7240;DHT22;3661;53.288;10.458;2023-07-31T06:07:47;15.90;99.90
7240;DHT22;3661;53.288;10.458;2023-07-31T06:10:20;16.00;99.90
7240;DHT22;3661;53.288;10.458;2023-07-31T06:12:53;16.00;99.90
7240;DHT22;3661;53.288;10.458;2023-07-31T06:15:25;16.00;99.90
7240;DHT22;3661;53.288;10.458;2023-07-31T06:17:59;16.10;99.90
7240;DHT22;3661;53.288;10.458;2023-07-31T06:20:33;16.10;99.90
7240;DHT22;3661;53.288;10.458;2023-07-31T06:23:05;16.10;99.90
7240;DHT22;3661;53.288;10.458;2023-07-31T06:25:37;16.20;99.90
7240;DHT22;3661;53.288;10.458;2023-07-31T06:28:10;16.20;99.90
7240;DHT22;3661;53.288;10.458;2023-07-31T06:30:42;16.20;99.90
7240;DHT22;3661;53.288;10.458;2023-07-31T06:33:16;16.30;99.90
7240;DHT22;3661;53.288;10.458;2023-07-31T06:35:51;16.30;99.90
7240;DHT22;3661;53.288;10.458;2023-07-31T06:38:25;16.30;99.90
7240;DHT22;3661;53.288;10.458;2023-07-31T06:40:58;16.40;99.90
7240;DHT22;3661;53.288;10.458;2023-07-31T06:43:31;16.40;99.90
7240;DHT22;3661;53.288;10.458;2023-07-31T06:46:04;16.50;99.90
7240;DHT22;3661;53.288;10.458;2023-07-31T06:48:39;16.50;99.90
7240;DHT22;3661;53.288;10.458;2023-07-31T06:51:11;16.50;99.90
7240;DHT22;3661;53.288;10.458;2023-07-31T06:53:45;16.60;99.90
7240;DHT22;3661;53.288;10.458;2023-07-31T06:56:18;16.60;99.90
7240;DHT22;3661;53.288;10.458;2023-07-31T06:58:50;16.60;99.90
7240;DHT22;3661;53.288;10.458;2023-07-31T07:01:23;16.70;99.90
7240;DHT22;3661;53.288;10.458;2023-07-31T07:03:56;16.70;99.90
7240;DHT22;3661;53.288;10.458;2023-07-31T07:06:29;16.70;99.90
7240;DHT22;3661;53.288;10.458;2023-07-31T07:09:02;16.80;99.90
7240;DHT22;3661;53.288;10.458;2023-07-31T07:11:34;16.80;99.90
7240;DHT22;3661;53.288;10.458;2023-07-31T07:14:08;16.90;99.90
7240;DHT22;3661;53.288;10.458;2023-07-31T07:16:41;16.90;99.90
7240;DHT22;3661;53.288;10.458;2023-07-31T07:19:26;17.00;99.90
7240;DHT22;3661;53.288;10.458;2023-07-31T07:21:58;17.00;99.90
7240;DHT22;3661;53.288;10.458;2023-07-31T07:24:33;17.10;99.90
7240;DHT22;3661;53.288;10.458;2023-07-31T07:33:48;17.20;99.90
7240;DHT22;3661;53.288;10.458;2023-07-31T07:36:23;17.30;99.90
7240;DHT22;3661;53.288;10.458;2023-07-31T07:38:57;17.30;99.90
7240;DHT22;3661;53.288;10.458;2023-07-31T07:41:29;17.40;99.90
7240;DHT22;3661;53.288;10.458;2023-07-31T07:44:01;17.40;99.90
7240;DHT22;3661;53.288;10.458;2023-07-31T07:46:34;17.50;99.90
7240;DHT22;3661;53.288;10.458;2023-07-31T07:49:06;17.50;99.90
7240;DHT22;3661;53.288;10.458;2023-07-31T07:51:40;17.50;99.90
7240;DHT22;3661;53.288;10.458;2023-07-31T07:54:12;17.50;99.90
7240;DHT22;3661;53.288;10.458;2023-07-31T07:56:44;17.50;99.90
7240;DHT22;3661;53.288;10.458;2023-07-31T07:59:19;17.50;99.90
7240;DHT22;3661;53.288;10.458;2023-07-31T08:01:51;17.50;99.90
7240;DHT22;3661;53.288;10.458;2023-07-31T08:04:28;17.50;99.90
7240;DHT22;3661;53.288;10.458;2023-07-31T08:07:03;17.50;99.90
7240;DHT22;3661;53.288;10.458;2023-07-31T08:09:37;17.60;99.90
7240;DHT22;3661;53.288;10.458;2023-07-31T08:12:09;17.60;99.90
7240;DHT22;3661;53.288;10.458;2023-07-31T08:14:41;17.60;99.90
7240;DHT22;3661;53.288;10.458;2023-07-31T08:17:13;17.60;99.90
7240;DHT22;3661;53.288;10.458;2023-07-31T08:19:45;17.60;99.90
7240;DHT22;3661;53.288;10.458;2023-07-31T08:22:21;17.70;99.90
7240;DHT22;3661;53.288;10.458;2023-07-31T08:24:54;17.70;99.90
7240;DHT22;3661;53.288;10.458;2023-07-31T08:27:29;17.70;99.90
7240;DHT22;3661;53.288;10.458;2023-07-31T08:30:01;17.70;99.90
7240;DHT22;3661;53.288;10.458;2023-07-31T08:32:33;17.70;99.90
7240;DHT22;3661;53.288;10.458;2023-07-31T08:35:08;17.80;99.90
7240;DHT22;3661;53.288;10.458;2023-07-31T08:40:22;17.80;99.90
7240;DHT22;3661;53.288;10.458;2023-07-31T08:42:56;17.80;99.90
7240;DHT22;3661;53.288;10.458;2023-07-31T08:45:33;17.80;99.90
7240;DHT22;3661;53.288;10.458;2023-07-31T08:48:06;17.90;99.90
7240;DHT22;3661;53.288;10.458;2023-07-31T08:50:45;17.90;99.90
7240;DHT22;3661;53.288;10.458;2023-07-31T08:53:18;17.90;99.90
7240;DHT22;3661;53.288;10.458;2023-07-31T08:55:53;17.90;99.90
7240;DHT22;3661;53.288;10.458;2023-07-31T08:58:25;17.90;99.90
7240;DHT22;3661;53.288;10.458;2023-07-31T09:01:01;17.90;99.90
7240;DHT22;3661;53.288;10.458;2023-07-31T09:03:36;17.90;99.90
7240;DHT22;3661;53.288;10.458;2023-07-31T09:09:01;17.90;99.90
7240;DHT22;3661;53.288;10.458;2023-07-31T09:11:35;17.90;99.90
7240;DHT22;3661;53.288;10.458;2023-07-31T09:14:08;17.90;99.90
7240;DHT22;3661;53.288;10.458;2023-07-31T09:16:52;17.90;99.90
7240;DHT22;3661;53.288;10.458;2023-07-31T09:19:25;17.90;99.90
7240;DHT22;3661;53.288;10.458;2023-07-31T09:21:58;17.90;99.90
7240;DHT22;3661;53.288;10.458;2023-07-31T09:24:32;18.00;99.90
7240;DHT22;3661;53.288;10.458;2023-07-31T09:27:06;18.00;99.90
7240;DHT22;3661;53.288;10.458;2023-07-31T09:29:39;18.00;99.90
7240;DHT22;3661;53.288;10.458;2023-07-31T09:32:16;18.00;99.90
7240;DHT22;3661;53.288;10.458;2023-07-31T09:34:49;18.00;99.90
7240;DHT22;3661;53.288;10.458;2023-07-31T09:37:23;18.00;99.90
7240;DHT22;3661;53.288;10.458;2023-07-31T09:39:55;18.10;99.90
7240;DHT22;3661;53.288;10.458;2023-07-31T09:42:30;18.10;99.90
7240;DHT22;3661;53.288;10.458;2023-07-31T09:45:08;18.10;99.90
7240;DHT22;3661;53.288;10.458;2023-07-31T09:47:46;18.10;99.90
7240;DHT22;3661;53.288;10.458;2023-07-31T09:50:20;18.10;99.90
7240;DHT22;3661;53.288;10.458;2023-07-31T09:52:55;18.20;99.90
7240;DHT22;3661;53.288;10.458;2023-07-31T09:55:28;18.20;99.90
7240;DHT22;3661;53.288;10.458;2023-07-31T09:58:05;18.20;99.90
7240;DHT22;3661;53.288;10.458;2023-07-31T10:00:39;18.20;99.90
7240;DHT22;3661;53.288;10.458;2023-07-31T10:03:11;18.30;99.90
7240;DHT22;3661;53.288;10.458;2023-07-31T10:05:48;18.30;99.90
7240;DHT22;3661;53.288;10.458;2023-07-31T10:08:26;18.30;99.90
7240;DHT22;3661;53.288;10.458;2023-07-31T10:11:01;18.30;99.90
7240;DHT22;3661;53.288;10.458;2023-07-31T10:13:39;18.40;99.90
7240;DHT22;3661;53.288;10.458;2023-07-31T10:16:14;18.40;99.90
7240;DHT22;3661;53.288;10.458;2023-07-31T10:18:48;18.40;99.90
7240;DHT22;3661;53.288;10.458;2023-07-31T10:21:22;18.40;99.90
7240;DHT22;3661;53.288;10.458;2023-07-31T10:23:55;18.40;99.90
7240;DHT22;3661;53.288;10.458;2023-07-31T10:26:28;18.40;99.90
7240;DHT22;3661;53.288;10.458;2023-07-31T10:29:03;18.40;99.90
7240;DHT22;3661;53.288;10.458;2023-07-31T10:31:36;18.40;99.90
7240;DHT22;3661;53.288;10.458;2023-07-31T10:34:08;18.50;99.90
7240;DHT22;3661;53.288;10.458;2023-07-31T10:36:40;18.50;99.90
7240;DHT22;3661;53.288;10.458;2023-07-31T10:39:33;18.50;99.90
7240;DHT22;3661;53.288;10.458;2023-07-31T10:42:11;18.60;99.90
7240;DHT22;3661;53.288;10.458;2023-07-31T10:44:46;18.60;99.90
7240;DHT22;3661;53.288;10.458;2023-07-31T10:47:23;18.60;99.90
7240;DHT22;3661;53.288;10.458;2023-07-31T10:53:04;18.70;99.90
7240;DHT22;3661;53.288;10.458;2023-07-31T10:55:43;18.70;99.90
7240;DHT22;3661;53.288;10.458;2023-07-31T10:58:21;18.70;99.90
7240;DHT22;3661;53.288;10.458;2023-07-31T11:04:17;18.80;99.90
7240;DHT22;3661;53.288;10.458;2023-07-31T11:07:01;18.80;99.90
7240;DHT22;3661;53.288;10.458;2023-07-31T11:09:36;18.80;99.90
7240;DHT22;3661;53.288;10.458;2023-07-31T11:12:09;18.90;99.90
7240;DHT22;3661;53.288;10.458;2023-07-31T11:14:42;18.90;99.90
7240;DHT22;3661;53.288;10.458;2023-07-31T11:17:14;18.90;99.90
7240;DHT22;3661;53.288;10.458;2023-07-31T11:19:50;18.90;99.90
7240;DHT22;3661;53.288;10.458;2023-07-31T11:22:22;19.00;99.90
7240;DHT22;3661;53.288;10.458;2023-07-31T11:24:55;19.00;99.90
7240;DHT22;3661;53.288;10.458;2023-07-31T11:27:29;19.10;99.90
7240;DHT22;3661;53.288;10.458;2023-07-31T11:30:01;19.10;99.90
7240;DHT22;3661;53.288;10.458;2023-07-31T11:32:33;19.10;99.90
7240;DHT22;3661;53.288;10.458;2023-07-31T11:35:07;19.20;99.90
7240;DHT22;3661;53.288;10.458;2023-07-31T11:37:44;19.20;99.90
7240;DHT22;3661;53.288;10.458;2023-07-31T11:40:16;19.30;99.90
7240;DHT22;3661;53.288;10.458;2023-07-31T11:42:48;19.30;99.90
7240;DHT22;3661;53.288;10.458;2023-07-31T11:45:21;19.30;99.90
7240;DHT22;3661;53.288;10.458;2023-07-31T11:47:54;19.40;99.90
7240;DHT22;3661;53.288;10.458;2023-07-31T11:50:33;19.40;99.90
7240;DHT22;3661;53.288;10.458;2023-07-31T11:53:08;19.40;99.90
7240;DHT22;3661;53.288;10.458;2023-07-31T11:55:41;19.50;99.90
7240;DHT22;3661;53.288;10.458;2023-07-31T11:58:14;19.50;99.90
7240;DHT22;3661;53.288;10.458;2023-07-31T12:00:47;19.50;99.90
7240;DHT22;3661;53.288;10.458;2023-07-31T12:03:20;19.50;99.90
7240;DHT22;3661;53.288;10.458;2023-07-31T12:05:54;19.60;99.90
7240;DHT22;3661;53.288;10.458;2023-07-31T12:08:26;19.60;99.90
7240;DHT22;3661;53.288;10.458;2023-07-31T12:11:03;19.60;99.90
7240;DHT22;3661;53.288;10.458;2023-07-31T12:13:36;19.60;99.90
7240;DHT22;3661;53.288;10.458;2023-07-31T12:16:10;19.60;99.90
7240;DHT22;3661;53.288;10.458;2023-07-31T12:18:45;19.60;99.90
7240;DHT22;3661;53.288;10.458;2023-07-31T12:21:20;19.60;99.90
7240;DHT22;3661;53.288;10.458;2023-07-31T12:23:55;19.60;99.90
7240;DHT22;3661;53.288;10.458;2023-07-31T12:26:34;19.60;99.90
7240;DHT22;3661;53.288;10.458;2023-07-31T12:29:07;19.60;99.90
7240;DHT22;3661;53.288;10.458;2023-07-31T12:31:41;19.60;99.90
7240;DHT22;3661;53.288;10.458;2023-07-31T12:34:16;19.60;99.90
7240;DHT22;3661;53.288;10.458;2023-07-31T12:36:53;19.60;99.90
7240;DHT22;3661;53.288;10.458;2023-07-31T12:39:47;19.60;99.90
7240;DHT22;3661;53.288;10.458;2023-07-31T12:42:22;19.60;99.90
7240;DHT22;3661;53.288;10.458;2023-07-31T12:45:09;19.60;99.90
7240;DHT22;3661;53.288;10.458;2023-07-31T12:47:42;19.60;99.90
7240;DHT22;3661;53.288;10.458;2023-07-31T12:50:14;19.60;99.90
7240;DHT22;3661;53.288;10.458;2023-07-31T12:52:48;19.60;99.90
7240;DHT22;3661;53.288;10.458;2023-07-31T12:55:21;19.70;99.90
7240;DHT22;3661;53.288;10.458;2023-07-31T12:57:53;19.70;99.90
7240;DHT22;3661;53.288;10.458;2023-07-31T13:00:25;19.70;99.90
7240;DHT22;3661;53.288;10.458;2023-07-31T13:02:57;19.70;99.90
7240;DHT22;3661;53.288;10.458;2023-07-31T13:05:30;19.70;99.90
7240;DHT22;3661;53.288;10.458;2023-07-31T13:08:04;19.70;99.90
7240;DHT22;3661;53.288;10.458;2023-07-31T13:10:36;19.70;99.90
7240;DHT22;3661;53.288;10.458;2023-07-31T13:13:09;19.70;99.90
7240;DHT22;3661;53.288;10.458;2023-07-31T13:15:43;19.70;99.90
7240;DHT22;3661;53.288;10.458;2023-07-31T13:18:15;19.70;99.90
7240;DHT22;3661;53.288;10.458;2023-07-31T13:20:47;19.60;99.90
7240;DHT22;3661;53.288;10.458;2023-07-31T13:23:22;19.60;99.90
7240;DHT22;3661;53.288;10.458;2023-07-31T13:25:54;19.70;99.90
7240;DHT22;3661;53.288;10.458;2023-07-31T13:28:26;19.60;99.90
7240;DHT22;3661;53.288;10.458;2023-07-31T13:30:59;19.60;99.90
7240;DHT22;3661;53.288;10.458;2023-07-31T13:33:37;19.60;99.90
7240;DHT22;3661;53.288;10.458;2023-07-31T13:36:09;19.60;99.90
7240;DHT22;3661;53.288;10.458;2023-07-31T13:38:46;19.60;99.90
7240;DHT22;3661;53.288;10.458;2023-07-31T13:41:24;19.60;99.90
7240;DHT22;3661;53.288;10.458;2023-07-31T13:43:57;19.70;99.90
7240;DHT22;3661;53.288;10.458;2023-07-31T13:46:32;19.70;99.90
7240;DHT22;3661;53.288;10.458;2023-07-31T13:49:04;19.70;99.90
7240;DHT22;3661;53.288;10.458;2023-07-31T13:51:36;19.70;99.90
7240;DHT22;3661;53.288;10.458;2023-07-31T13:54:11;19.70;99.90
7240;DHT22;3661;53.288;10.458;2023-07-31T13:56:44;19.70;99.90
7240;DHT22;3661;53.288;10.458;2023-07-31T13:59:16;19.60;99.90
7240;DHT22;3661;53.288;10.458;2023-07-31T14:01:48;19.60;99.90
7240;DHT22;3661;53.288;10.458;2023-07-31T14:04:21;19.60;99.90
7240;DHT22;3661;53.288;10.458;2023-07-31T14:06:54;19.60;99.90
7240;DHT22;3661;53.288;10.458;2023-07-31T14:09:28;19.60;99.90
7240;DHT22;3661;53.288;10.458;2023-07-31T14:12:01;19.60;99.90
7240;DHT22;3661;53.288;10.458;2023-07-31T14:14:33;19.60;99.90
7240;DHT22;3661;53.288;10.458;2023-07-31T14:17:06;19.60;99.90
7240;DHT22;3661;53.288;10.458;2023-07-31T14:19:38;19.60;99.90
7240;DHT22;3661;53.288;10.458;2023-07-31T14:22:10;19.60;99.90
7240;DHT22;3661;53.288;10.458;2023-07-31T14:24:43;19.60;99.90
7240;DHT22;3661;53.288;10.458;2023-07-31T14:27:16;19.60;99.90
7240;DHT22;3661;53.288;10.458;2023-07-31T14:29:48;19.60;99.90
7240;DHT22;3661;53.288;10.458;2023-07-31T14:32:20;19.60;99.90
7240;DHT22;3661;53.288;10.458;2023-07-31T14:34:54;19.60;99.90
7240;DHT22;3661;53.288;10.458;2023-07-31T14:37:27;19.60;99.90
7240;DHT22;3661;53.288;10.458;2023-07-31T14:40:11;19.60;99.90
7240;DHT22;3661;53.288;10.458;2023-07-31T14:42:45;19.60;99.90
7240;DHT22;3661;53.288;10.458;2023-07-31T14:45:17;19.60;99.90
7240;DHT22;3661;53.288;10.458;2023-07-31T14:47:49;19.60;99.90
7240;DHT22;3661;53.288;10.458;2023-07-31T14:50:22;19.60;99.90
7240;DHT22;3661;53.288;10.458;2023-07-31T14:52:54;19.50;99.90
7240;DHT22;3661;53.288;10.458;2023-07-31T14:55:28;19.50;99.90
7240;DHT22;3661;53.288;10.458;2023-07-31T14:58:00;19.50;99.90
7240;DHT22;3661;53.288;10.458;2023-07-31T15:00:32;19.50;99.90
7240;DHT22;3661;53.288;10.458;2023-07-31T15:03:04;19.50;99.90
7240;DHT22;3661;53.288;10.458;2023-07-31T15:05:36;19.50;99.90
7240;DHT22;3661;53.288;10.458;2023-07-31T15:08:09;19.50;99.90
7240;DHT22;3661;53.288;10.458;2023-07-31T15:10:42;19.50;99.90
7240;DHT22;3661;53.288;10.458;2023-07-31T15:13:17;19.50;99.90
7240;DHT22;3661;53.288;10.458;2023-07-31T15:15:50;19.50;99.90
7240;DHT22;3661;53.288;10.458;2023-07-31T15:18:24;19.50;99.90
7240;DHT22;3661;53.288;10.458;2023-07-31T15:20:56;19.50;99.90
7240;DHT22;3661;53.288;10.458;2023-07-31T15:23:28;19.40;99.90
7240;DHT22;3661;53.288;10.458;2023-07-31T15:26:02;19.40;99.90
7240;DHT22;3661;53.288;10.458;2023-07-31T15:28:36;19.40;99.90
7240;DHT22;3661;53.288;10.458;2023-07-31T15:31:09;19.40;99.90
7240;DHT22;3661;53.288;10.458;2023-07-31T15:33:41;19.40;99.90
7240;DHT22;3661;53.288;10.458;2023-07-31T15:36:13;19.40;99.90
7240;DHT22;3661;53.288;10.458;2023-07-31T15:38:48;19.30;99.90
7240;DHT22;3661;53.288;10.458;2023-07-31T15:41:34;19.30;99.90
7240;DHT22;3661;53.288;10.458;2023-07-31T15:44:07;19.30;99.90
7240;DHT22;3661;53.288;10.458;2023-07-31T15:46:39;19.30;99.90
7240;DHT22;3661;53.288;10.458;2023-07-31T15:49:11;19.30;99.90
7240;DHT22;3661;53.288;10.458;2023-07-31T15:51:44;19.30;99.90
7240;DHT22;3661;53.288;10.458;2023-07-31T15:54:16;19.30;99.90
7240;DHT22;3661;53.288;10.458;2023-07-31T15:56:51;19.30;99.90
7240;DHT22;3661;53.288;10.458;2023-07-31T15:59:23;19.30;99.90
7240;DHT22;3661;53.288;10.458;2023-07-31T16:01:55;19.30;99.90
7240;DHT22;3661;53.288;10.458;2023-07-31T16:04:27;19.30;99.90
7240;DHT22;3661;53.288;10.458;2023-07-31T16:07:00;19.30;99.90
7240;DHT22;3661;53.288;10.458;2023-07-31T16:09:33;19.30;99.90
7240;DHT22;3661;53.288;10.458;2023-07-31T16:12:07;19.30;99.90
7240;DHT22;3661;53.288;10.458;2023-07-31T16:14:40;19.30;99.90
7240;DHT22;3661;53.288;10.458;2023-07-31T16:17:13;19.30;99.90
7240;DHT22;3661;53.288;10.458;2023-07-31T16:19:45;19.30;99.90
7240;DHT22;3661;53.288;10.458;2023-07-31T16:22:17;19.30;99.90
7240;DHT22;3661;53.288;10.458;2023-07-31T16:24:49;19.30;99.90
7240;DHT22;3661;53.288;10.458;2023-07-31T16:27:23;19.30;99.90
7240;DHT22;3661;53.288;10.458;2023-07-31T16:29:55;19.30;99.90
7240;DHT22;3661;53.288;10.458;2023-07-31T16:32:30;19.30;99.90
7240;DHT22;3661;53.288;10.458;2023-07-31T16:35:04;19.30;99.90
7240;DHT22;3661;53.288;10.458;2023-07-31T16:37:36;19.30;99.90
7240;DHT22;3661;53.288;10.458;2023-07-31T16:40:09;19.30;99.90
7240;DHT22;3661;53.288;10.458;2023-07-31T16:42:43;19.30;99.90
7240;DHT22;3661;53.288;10.458;2023-07-31T16:45:15;19.30;99.90